Terminal Aerodrome Forecast
Issued by NWS

Home | Current Version | Previous Version | Text Only | Print | Product List | Glossary Off
Versions: 1 2 3 4 5 6 7 8 9 10 11 12 13 14 15 16 17

000
FTUS43 KIWX 301100
TAFSBN
TAF
KSBN 301139Z 3012/3112 19010KT P6SM -SHRA SCT050 OVC100
     FM301500 20012G20KT P6SM SCT040 BKN100
     FM301900 21015G23KT P6SM VCTS BKN040CB
      TEMPO 3021/3024 4SM -TSRA BKN030CB
     FM310300 20008KT 5SM BR SCT025 BKN080
     FM310800 21004KT 3SM BR BKN008=

USA.gov is the U.S. government's official web portal to all federal, state and local government web resources and services.